createdAt,value
2022-12-08T00:01:11.718Z,96419.94
2022-12-08T00:03:38.614Z,96417.44
2022-12-08T00:06:06.231Z,96413.97
2022-12-08T00:08:34.081Z,96408.63
2022-12-08T00:11:00.684Z,96397.13
2022-12-08T00:13:28.633Z,96394.84
2022-12-08T00:16:00.527Z,96400.19
2022-12-08T00:18:27.223Z,96387.84
2022-12-08T00:20:57.217Z,96390.50
2022-12-08T00:23:23.875Z,96390.72
2022-12-08T00:25:50.482Z,96386.22
2022-12-08T00:28:17.173Z,96387.06
2022-12-08T00:30:43.903Z,96390.34
2022-12-08T00:33:10.891Z,96387.25
2022-12-08T00:35:42.767Z,96373.47
2022-12-08T00:38:09.774Z,96368.16
2022-12-08T00:40:36.411Z,96372.63
2022-12-08T00:43:02.999Z,96369.78
2022-12-08T00:45:29.694Z,96374.50
2022-12-08T00:47:56.805Z,96368.34
2022-12-08T00:50:23.444Z,96370.59
2022-12-08T00:52:50.111Z,96367.94
2022-12-08T00:55:16.833Z,96370.38
2022-12-08T00:57:43.481Z,96372.22
2022-12-08T01:00:10.511Z,96369.19
2022-12-08T01:02:37.112Z,96368.91
2022-12-08T01:05:03.801Z,96386.22
2022-12-08T01:07:30.440Z,96377.97
2022-12-08T01:09:57.156Z,96377.63
2022-12-08T01:12:24.037Z,96370.59
2022-12-08T01:14:50.677Z,96369.38
2022-12-08T01:17:17.275Z,96367.75
2022-12-08T01:19:43.939Z,96363.84
2022-12-08T01:22:10.604Z,96365.13
2022-12-08T01:24:38.306Z,96363.28
2022-12-08T01:27:04.948Z,96365.28
2022-12-08T01:29:31.600Z,96364.47
2022-12-08T01:31:58.241Z,96367.72
2022-12-08T01:34:24.931Z,96371.69
2022-12-08T01:36:51.594Z,96361.16
2022-12-08T01:39:18.877Z,96362.00
2022-12-08T01:41:45.953Z,96364.09
2022-12-08T01:44:12.512Z,96362.03
2022-12-08T01:46:43.225Z,96358.31
2022-12-08T01:49:15.684Z,96357.25
2022-12-08T01:52:00.637Z,96351.13
2022-12-08T01:54:29.469Z,96353.00
2022-12-08T01:57:00.076Z,96351.38
2022-12-08T01:59:26.780Z,96349.09
2022-12-08T02:01:53.486Z,96346.41
2022-12-08T02:04:20.248Z,96341.88
2022-12-08T02:06:47.105Z,96345.78
2022-12-08T02:09:13.713Z,96345.41
2022-12-08T02:11:40.353Z,96341.88
2022-12-08T02:14:07.492Z,96341.03
2022-12-08T02:16:54.365Z,96342.31
2022-12-08T02:19:45.122Z,96334.47
2022-12-08T02:22:17.056Z,96327.50
2022-12-08T02:24:47.504Z,96325.03
2022-12-08T02:27:23.157Z,96323.78
2022-12-08T02:30:02.147Z,96319.69
2022-12-08T02:33:04.200Z,96320.97
2022-12-08T02:36:08.983Z,96310.69
2022-12-08T02:39:17.660Z,96308.22
2022-12-08T02:42:03.049Z,96311.34
2022-12-08T02:44:33.715Z,96312.34
2022-12-08T02:47:14.493Z,96300.84
2022-12-08T02:49:41.181Z,96299.44
2022-12-08T02:52:28.803Z,96293.09
2022-12-08T02:54:58.929Z,96296.97
2022-12-08T02:57:48.031Z,96295.13
2022-12-08T03:00:16.697Z,96289.78
2022-12-08T03:02:46.991Z,96284.03
2022-12-08T03:05:31.792Z,96287.69
2022-12-08T03:08:30.723Z,96280.72
2022-12-08T03:11:02.549Z,96281.56
2022-12-08T03:13:38.568Z,96281.13
2022-12-08T03:16:05.486Z,96274.97
2022-12-08T03:18:32.169Z,96271.34
2022-12-08T03:20:58.837Z,96278.50
2022-12-08T03:23:25.550Z,96278.09
2022-12-08T03:25:57.540Z,96274.81
2022-12-08T03:28:24.146Z,96275.06
2022-12-08T03:30:51.353Z,96265.66
2022-12-08T03:33:30.313Z,96273.06
2022-12-08T03:35:57.171Z,96268.56
2022-12-08T03:38:23.774Z,96267.28
2022-12-08T03:40:50.492Z,96264.81
2022-12-08T03:43:17.144Z,96262.75
2022-12-08T03:45:43.744Z,96258.44
2022-12-08T03:48:10.329Z,96258.84
2022-12-08T03:50:36.933Z,96247.56
2022-12-08T03:53:03.544Z,96245.53
2022-12-08T03:55:30.172Z,96235.28
2022-12-08T03:57:56.765Z,96238.59
2022-12-08T04:00:23.414Z,96240.19
2022-12-08T04:02:50.298Z,96239.38
2022-12-08T04:05:17.059Z,96235.66
2022-12-08T04:07:43.781Z,96229.72
2022-12-08T04:10:10.804Z,96229.50
2022-12-08T04:12:37.405Z,96227.19
2022-12-08T04:15:04.289Z,96224.34
2022-12-08T04:17:30.956Z,96227.00
2022-12-08T04:19:57.590Z,96229.69
2022-12-08T04:22:24.235Z,96222.53
2022-12-08T04:24:51.056Z,96223.56
2022-12-08T04:27:17.727Z,96220.88
2022-12-08T04:29:44.444Z,96225.81
2022-12-08T04:32:11.041Z,96224.16
2022-12-08T04:34:37.630Z,96215.69
2022-12-08T04:37:04.377Z,96215.97
2022-12-08T04:39:30.976Z,96221.69
2022-12-08T04:41:57.722Z,96225.41
2022-12-08T04:44:24.335Z,96223.56
2022-12-08T04:46:51.037Z,96222.28
2022-12-08T04:49:17.680Z,96228.44
2022-12-08T04:51:44.334Z,96218.22
2022-12-08T04:54:10.929Z,96218.03
2022-12-08T04:56:37.557Z,96216.78
2022-12-08T04:59:04.199Z,96215.91
2022-12-08T05:01:30.835Z,96221.28
2022-12-08T05:03:57.471Z,96219.91
2022-12-08T05:06:24.076Z,96213.94
2022-12-08T05:08:51.270Z,96212.78
2022-12-08T05:11:17.882Z,96215.41
2022-12-08T05:13:44.514Z,96212.50
2022-12-08T05:16:12.749Z,96206.53
2022-12-08T05:18:39.492Z,96205.31
2022-12-08T05:21:06.638Z,96205.34
2022-12-08T05:23:33.283Z,96201.91
2022-12-08T05:26:00.960Z,96206.16
2022-12-08T05:28:43.902Z,96206.00
2022-12-08T05:31:14.923Z,96201.47
2022-12-08T05:33:41.687Z,96203.25
2022-12-08T05:36:08.753Z,96200.19
2022-12-08T05:38:35.494Z,96202.63
2022-12-08T05:41:02.099Z,96207.16
2022-12-08T05:43:28.729Z,96199.19
2022-12-08T05:45:55.460Z,96201.38
2022-12-08T05:48:22.113Z,96199.56
2022-12-08T05:50:49.112Z,96200.00
2022-12-08T05:53:16.613Z,96203.03
2022-12-08T05:55:43.245Z,96201.84
2022-12-08T05:58:14.333Z,96200.41
2022-12-08T06:00:41.506Z,96199.56
2022-12-08T06:03:08.471Z,96202.44
2022-12-08T06:05:35.300Z,96205.94
2022-12-08T06:08:02.149Z,96208.19
2022-12-08T06:10:28.888Z,96211.63
2022-12-08T06:12:55.531Z,96206.31
2022-12-08T06:15:22.188Z,96211.03
2022-12-08T06:17:48.811Z,96208.34
2022-12-08T06:20:15.644Z,96209.75
2022-12-08T06:22:42.274Z,96201.16
2022-12-08T06:25:10.234Z,96202.63
2022-12-08T06:27:37.028Z,96197.88
2022-12-08T06:30:04.255Z,96194.84
2022-12-08T06:32:31.195Z,96195.94
2022-12-08T06:34:57.837Z,96188.75
2022-12-08T06:37:24.494Z,96200.00
2022-12-08T06:39:51.096Z,96193.88
2022-12-08T06:42:17.687Z,96202.44
2022-12-08T06:44:44.371Z,96203.25
2022-12-08T06:47:11.042Z,96206.97
2022-12-08T06:49:37.677Z,96201.66
2022-12-08T06:52:04.400Z,96206.13
2022-12-08T06:54:31.131Z,96199.81
2022-12-08T06:56:57.719Z,96195.44
2022-12-08T06:59:24.322Z,96191.19
2022-12-08T07:01:51.006Z,96196.03
2022-12-08T07:04:17.715Z,96193.81
2022-12-08T07:06:44.384Z,96194.66
2022-12-08T07:09:11.030Z,96195.44
2022-12-08T07:11:38.646Z,96193.88
2022-12-08T07:14:05.260Z,96194.19
2022-12-08T07:16:31.943Z,96195.81
2022-12-08T07:18:59.743Z,96195.63
2022-12-08T07:21:26.364Z,96181.88
2022-12-08T07:23:57.687Z,96197.91
2022-12-08T07:26:25.010Z,96192.59
2022-12-08T07:28:51.602Z,96197.88
2022-12-08T07:31:20.085Z,96190.44
2022-12-08T07:33:46.977Z,96195.81
2022-12-08T07:36:13.580Z,96195.03
2022-12-08T07:38:40.226Z,96194.84
2022-12-08T07:41:11.217Z,96192.44
2022-12-08T07:43:37.827Z,96201.22
2022-12-08T07:46:04.540Z,96193.00
2022-12-08T07:48:31.224Z,96188.97
2022-12-08T07:51:02.051Z,96191.00
2022-12-08T07:53:28.687Z,96192.78
2022-12-08T07:55:55.344Z,96186.84
2022-12-08T07:58:22.004Z,96200.00
2022-12-08T08:00:51.075Z,96189.31
2022-12-08T08:03:17.760Z,96188.84
2022-12-08T08:05:44.442Z,96196.88
2022-12-08T08:08:11.326Z,96193.94
2022-12-08T08:10:37.994Z,96192.91
2022-12-08T08:13:04.647Z,96195.41
2022-12-08T08:15:31.428Z,96196.72
2022-12-08T08:17:58.219Z,96204.28
2022-12-08T08:20:24.878Z,96194.53
2022-12-08T08:22:51.617Z,96193.19
2022-12-08T08:25:18.684Z,96192.06
2022-12-08T08:27:45.357Z,96186.88
2022-12-08T08:30:18.185Z,96194.31
2022-12-08T08:32:46.961Z,96188.97
2022-12-08T08:35:13.621Z,96184.38
2022-12-08T08:37:43.159Z,96182.09
2022-12-08T08:40:13.775Z,96185.13
2022-12-08T08:42:40.435Z,96182.09
2022-12-08T08:45:07.589Z,96189.09
2022-12-08T08:47:34.199Z,96191.09
2022-12-08T08:50:00.798Z,96189.22
2022-12-08T08:52:27.396Z,96188.34
2022-12-08T08:54:54.026Z,96184.63
2022-12-08T08:57:25.348Z,96183.31
2022-12-08T08:59:52.574Z,96182.97
2022-12-08T09:02:19.406Z,96175.25
2022-12-08T09:04:46.250Z,96172.94
2022-12-08T09:07:13.043Z,96176.56
2022-12-08T09:09:39.695Z,96176.72
2022-12-08T09:12:06.808Z,96173.13
2022-12-08T09:14:33.492Z,96173.19
2022-12-08T09:17:00.212Z,96168.44
2022-12-08T09:19:26.876Z,96163.44
2022-12-08T09:21:53.545Z,96153.63
2022-12-08T09:24:20.203Z,96140.06
2022-12-08T09:26:46.881Z,96148.19
2022-12-08T09:29:13.479Z,96146.88
2022-12-08T09:31:40.294Z,96145.78
2022-12-08T09:34:07.010Z,96156.63
2022-12-08T09:36:33.603Z,96155.78
2022-12-08T09:39:00.215Z,96159.88
2022-12-08T09:41:37.862Z,96161.50
2022-12-08T09:44:34.589Z,96166.59
2022-12-08T09:47:01.656Z,96173.69
2022-12-08T09:49:35.308Z,96165.88
2022-12-08T09:52:01.907Z,96152.88
2022-12-08T09:54:32.607Z,96150.38
2022-12-08T09:57:00.564Z,96137.81
2022-12-08T09:59:33.644Z,96145.53
2022-12-08T10:02:04.535Z,96154.00
2022-12-08T10:04:33.412Z,96144.47
2022-12-08T10:07:09.965Z,96136.16
2022-12-08T10:09:41.562Z,96125.59
2022-12-08T10:12:26.407Z,96130.22
2022-12-08T10:15:01.478Z,96120.06
2022-12-08T10:17:33.528Z,96115.41
2022-12-08T10:20:03.654Z,96106.09
2022-12-08T10:22:37.618Z,96115.00
2022-12-08T10:25:17.456Z,96103.66
2022-12-08T10:27:44.157Z,96096.03
2022-12-08T10:30:19.499Z,96097.56
2022-12-08T10:32:48.106Z,96091.66
2022-12-08T10:35:15.633Z,96090.56
2022-12-08T10:37:42.365Z,96085.97
2022-12-08T10:40:09.045Z,96087.31
2022-12-08T10:43:02.923Z,96090.38
2022-12-08T10:45:31.206Z,96085.03
2022-12-08T10:48:03.791Z,96078.38
2022-12-08T10:50:52.201Z,96083.81
2022-12-08T10:53:29.425Z,96074.28
2022-12-08T10:56:01.632Z,96078.59
2022-12-08T10:58:38.912Z,96071.91
2022-12-08T11:01:14.383Z,96078.19
2022-12-08T11:03:48.812Z,96070.16
2022-12-08T11:06:19.426Z,96068.41
2022-12-08T11:08:51.242Z,96055.44
2022-12-08T11:11:17.854Z,96058.63
2022-12-08T11:13:44.455Z,96059.81
2022-12-08T11:16:14.234Z,96063.53
2022-12-08T11:18:55.428Z,96051.66
2022-12-08T11:21:22.065Z,96049.22
2022-12-08T11:23:49.898Z,96043.69
2022-12-08T11:26:32.874Z,96049.22
2022-12-08T11:28:59.472Z,96043.41
2022-12-08T11:31:39.704Z,96030.44
2022-12-08T11:34:06.433Z,96037.50
2022-12-08T11:36:33.276Z,96027.63
2022-12-08T11:39:01.053Z,96029.75
2022-12-08T11:41:38.857Z,96022.03
2022-12-08T11:44:23.724Z,96013.22
2022-12-08T11:46:55.584Z,96012.56
2022-12-08T11:49:37.688Z,96012.16
2022-12-08T11:52:19.468Z,96009.47
2022-12-08T11:55:02.194Z,96003.19
2022-12-08T11:57:28.838Z,96005.78
2022-12-08T11:59:57.117Z,96009.72
2022-12-08T12:02:28.222Z,96000.13
2022-12-08T12:05:07.946Z,96006.03
2022-12-08T12:08:05.652Z,96005.91
2022-12-08T12:11:01.858Z,95992.81
2022-12-08T12:13:44.477Z,95990.81
2022-12-08T12:16:49.166Z,95984.06
2022-12-08T12:19:16.876Z,95989.69
2022-12-08T12:21:45.263Z,95979.69
2022-12-08T12:24:28.421Z,95979.31
2022-12-08T12:27:05.335Z,95979.16
2022-12-08T12:29:33.690Z,95971.75
2022-12-08T12:32:02.691Z,95980.13
2022-12-08T12:34:31.350Z,95961.81
2022-12-08T12:37:05.447Z,95965.75
2022-12-08T12:39:34.061Z,95962.91
2022-12-08T12:42:01.824Z,95955.19
2022-12-08T12:44:28.345Z,95968.94
2022-12-08T12:47:01.554Z,95955.72
2022-12-08T12:49:40.230Z,95956.84
2022-12-08T12:52:15.509Z,95965.69
2022-12-08T12:54:45.679Z,95962.25
2022-12-08T12:57:12.192Z,95954.53
2022-12-08T12:59:47.903Z,95957.75
2022-12-08T13:02:27.542Z,95956.00
2022-12-08T13:05:13.237Z,95954.13
2022-12-08T13:07:51.169Z,95953.94
2022-12-08T13:10:33.334Z,95954.22
2022-12-08T13:13:05.960Z,95946.34
2022-12-08T13:15:36.594Z,95941.16
2022-12-08T13:18:03.217Z,95937.59
2022-12-08T13:20:29.815Z,95924.94
2022-12-08T13:23:11.552Z,95936.56
2022-12-08T13:25:44.281Z,95931.59
2022-12-08T13:28:28.059Z,95931.88
2022-12-08T13:30:57.636Z,95932.19
2022-12-08T13:33:29.560Z,95935.38
2022-12-08T13:36:20.847Z,95923.72
2022-12-08T13:38:47.466Z,95920.94
2022-12-08T13:41:17.668Z,95921.38
2022-12-08T13:44:50.367Z,95911.91
2022-12-08T13:47:09.791Z,95904.44
2022-12-08T13:58:35.051Z,95894.72
2022-12-08T14:01:13.481Z,95894.56
2022-12-08T14:04:30.871Z,95886.75
2022-12-08T14:06:43.956Z,95881.44
2022-12-08T14:09:12.821Z,95884.50
2022-12-08T14:11:47.242Z,95884.19
2022-12-08T14:14:32.630Z,95883.84
2022-12-08T14:17:09.711Z,95886.28
2022-12-08T14:19:36.325Z,95881.00
2022-12-08T14:22:12.563Z,95882.41
2022-12-08T14:24:39.239Z,95877.81
2022-12-08T14:27:09.293Z,95872.38
2022-12-08T14:29:46.594Z,95877.72
2022-12-08T14:32:29.981Z,95865.78
2022-12-08T14:35:01.440Z,95867.91
2022-12-08T14:37:32.262Z,95867.47
2022-12-08T14:40:06.687Z,95864.41
2022-12-08T14:42:42.902Z,95863.78
2022-12-08T14:45:11.092Z,95873.19
2022-12-08T14:47:37.704Z,95870.19
2022-12-08T14:50:05.224Z,95868.78
2022-12-08T14:52:32.103Z,95864.66
2022-12-08T14:54:58.758Z,95870.59
2022-12-08T14:57:29.712Z,95863.84
2022-12-08T14:59:56.360Z,95866.84
2022-12-08T15:02:25.379Z,95867.28
2022-12-08T15:05:02.105Z,95869.44
2022-12-08T15:07:30.316Z,95867.22
2022-12-08T15:10:26.917Z,95858.63
2022-12-08T15:13:05.534Z,95858.63
2022-12-08T15:15:33.093Z,95860.75
2022-12-08T15:18:17.174Z,95862.69
2022-12-08T15:20:45.896Z,95857.50
2022-12-08T15:23:29.074Z,95843.19
2022-12-08T15:25:55.780Z,95851.28
2022-12-08T15:28:29.398Z,95844.34
2022-12-08T15:30:57.011Z,95845.78
2022-12-08T15:33:23.671Z,95839.56
2022-12-08T15:35:51.140Z,95843.56
2022-12-08T15:38:19.047Z,95843.66
2022-12-08T15:40:45.670Z,95850.97
2022-12-08T15:43:12.326Z,95838.59
2022-12-08T15:45:44.757Z,95838.75
2022-12-08T15:48:19.397Z,95840.00
2022-12-08T15:50:46.477Z,95834.66
2022-12-08T15:53:13.313Z,95848.44
2022-12-08T15:55:43.144Z,95834.97
2022-12-08T16:01:08.393Z,95834.97
2022-12-08T16:07:12.903Z,95830.75
2022-12-08T16:09:37.710Z,95828.28
2022-12-08T16:12:08.442Z,95828.28
2022-12-08T16:17:22.596Z,95831.56
2022-12-08T16:19:49.235Z,95840.75
2022-12-08T16:25:19.485Z,95838.91
2022-12-08T16:30:34.295Z,95824.25
2022-12-08T16:33:00.894Z,95826.66
2022-12-08T16:35:27.532Z,95819.00
2022-12-08T16:37:54.137Z,95816.81
2022-12-08T16:40:20.847Z,95829.59
2022-12-08T16:42:47.533Z,95833.81
2022-12-08T16:45:21.941Z,95832.50
2022-12-08T16:48:01.086Z,95834.34
2022-12-08T16:50:32.425Z,95829.66
2022-12-08T16:53:00.743Z,95823.91
2022-12-08T16:55:27.425Z,95826.59
2022-12-08T16:57:54.083Z,95830.31
2022-12-08T17:00:22.229Z,95831.50
2022-12-08T17:02:48.909Z,95833.50
2022-12-08T17:05:17.256Z,95819.59
2022-12-08T17:07:44.558Z,95828.19
2022-12-08T17:10:14.706Z,95835.97
2022-12-08T17:12:41.512Z,95836.69
2022-12-08T17:15:10.199Z,95834.00
2022-12-08T17:17:37.218Z,95832.91
2022-12-08T17:20:06.642Z,95825.16
2022-12-08T17:22:33.484Z,95824.25
2022-12-08T17:25:00.902Z,95825.09
2022-12-08T17:27:27.580Z,95818.09
2022-12-08T17:29:54.263Z,95822.03
2022-12-08T17:32:21.014Z,95812.41
2022-12-08T17:34:47.735Z,95823.25
2022-12-08T17:37:14.479Z,95818.22
2022-12-08T17:39:41.110Z,95815.91
2022-12-08T17:42:07.769Z,95820.38
2022-12-08T17:44:34.548Z,95816.72
2022-12-08T17:47:01.537Z,95822.22
2022-12-08T17:49:28.617Z,95823.56
2022-12-08T17:51:56.260Z,95821.47
2022-12-08T17:54:22.866Z,95824.16
2022-12-08T17:56:49.493Z,95817.69
2022-12-08T17:59:16.088Z,95811.53
2022-12-08T18:01:42.831Z,95811.88
2022-12-08T18:04:09.704Z,95809.44
2022-12-08T18:06:36.885Z,95807.84
2022-12-08T18:09:03.615Z,95801.88
2022-12-08T18:11:30.796Z,95805.06
2022-12-08T18:13:57.474Z,95793.81
2022-12-08T18:16:25.264Z,95794.16
2022-12-08T18:18:51.986Z,95793.13
2022-12-08T18:21:23.310Z,95780.53
2022-12-08T18:23:50.547Z,95784.25
2022-12-08T18:26:17.139Z,95779.34
2022-12-08T18:28:43.741Z,95780.59
2022-12-08T18:31:11.776Z,95782.97
2022-12-08T18:33:39.684Z,95786.69
2022-12-08T18:36:10.582Z,95789.16
2022-12-08T18:38:37.452Z,95779.50
2022-12-08T18:41:30.213Z,95779.50
2022-12-08T18:43:57.052Z,95768.38
2022-12-08T18:46:24.036Z,95765.91
2022-12-08T18:48:50.951Z,95759.97
2022-12-08T18:51:22.003Z,95757.22
2022-12-08T18:53:48.801Z,95755.16
2022-12-08T18:56:31.145Z,95753.50
2022-12-08T18:59:03.230Z,95752.25
2022-12-08T19:01:34.087Z,95753.06
2022-12-08T19:06:48.350Z,95760.03
2022-12-08T19:09:14.961Z,95752.97
2022-12-08T19:11:41.619Z,95753.88
2022-12-08T19:14:08.444Z,95748.03
2022-12-08T19:16:35.290Z,95754.44
2022-12-08T19:19:02.042Z,95750.03
2022-12-08T19:21:28.694Z,95751.22
2022-12-08T19:23:55.331Z,95754.22
2022-12-08T19:26:22.048Z,95753.13
2022-12-08T19:28:48.684Z,95753.88
2022-12-08T19:31:15.418Z,95755.41
2022-12-08T19:33:42.068Z,95755.63
2022-12-08T19:36:10.116Z,95763.41
2022-12-08T19:38:37.018Z,95760.03
2022-12-08T19:41:03.681Z,95755.16
2022-12-08T19:43:30.337Z,95749.13
2022-12-08T19:45:57.075Z,95752.84
2022-12-08T19:48:23.872Z,95746.47
2022-12-08T19:50:50.620Z,95739.13
2022-12-08T19:53:17.296Z,95741.19
2022-12-08T19:55:44.019Z,95741.56
2022-12-08T19:58:10.665Z,95739.13
2022-12-08T20:00:37.956Z,95750.59
2022-12-08T20:03:04.760Z,95749.81
2022-12-08T20:05:31.541Z,95744.00
2022-12-08T20:07:58.221Z,95737.03
2022-12-08T20:10:26.986Z,95733.41
2022-12-08T20:12:54.618Z,95735.59
2022-12-08T20:15:21.332Z,95720.03
2022-12-08T20:17:47.973Z,95729.47
2022-12-08T20:20:15.124Z,95732.84
2022-12-08T20:22:42.278Z,95728.22
2022-12-08T20:25:12.815Z,95727.84
2022-12-08T20:27:40.131Z,95709.75
2022-12-08T20:30:11.851Z,95725.16
2022-12-08T20:32:41.838Z,95717.78
2022-12-08T20:35:09.051Z,95716.00
2022-12-08T20:37:35.934Z,95722.06
2022-12-08T20:40:02.585Z,95715.69
2022-12-08T20:42:29.298Z,95716.72
2022-12-08T20:44:55.905Z,95704.22
2022-12-08T20:47:22.581Z,95698.88
2022-12-08T20:49:49.388Z,95702.56
2022-12-08T20:52:16.037Z,95710.13
2022-12-08T20:54:42.793Z,95704.78
2022-12-08T20:57:09.427Z,95712.81
2022-12-08T20:59:36.021Z,95706.19
2022-12-08T21:02:02.738Z,95708.66
2022-12-08T21:04:29.831Z,95704.91
2022-12-08T21:06:56.670Z,95705.06
2022-12-08T21:09:23.654Z,95712.13
2022-12-08T21:11:50.466Z,95722.09
2022-12-08T21:14:17.124Z,95728.50
2022-12-08T21:16:43.775Z,95734.00
2022-12-08T21:19:10.565Z,95741.53
2022-12-08T21:21:37.386Z,95740.94
2022-12-08T21:24:04.562Z,95741.31
2022-12-08T21:26:31.281Z,95745.56
2022-12-08T21:28:57.969Z,95731.75
2022-12-08T21:31:25.718Z,95736.63
2022-12-08T21:33:52.662Z,95732.94
2022-12-08T21:36:20.148Z,95735.00
2022-12-08T21:38:46.936Z,95736.19
2022-12-08T21:41:15.502Z,95727.81
2022-12-08T21:43:42.449Z,95726.66
2022-12-08T21:46:16.200Z,95722.72
2022-12-08T21:48:43.536Z,95725.38
2022-12-08T21:51:10.629Z,95734.31
2022-12-08T21:53:37.395Z,95728.84
2022-12-08T21:56:08.477Z,95730.84
2022-12-08T21:58:35.680Z,95729.88
2022-12-08T22:01:09.085Z,95726.94
2022-12-08T22:03:36.551Z,95727.81
2022-12-08T22:06:07.078Z,95725.72
2022-12-08T22:08:33.971Z,95734.81
2022-12-08T22:11:00.825Z,95734.00
2022-12-08T22:13:27.703Z,95728.50
2022-12-08T22:15:58.274Z,95738.25
2022-12-08T22:18:25.066Z,95729.66
2022-12-08T22:20:52.011Z,95720.94
2022-12-08T22:23:19.087Z,95734.41
2022-12-08T22:25:45.929Z,95724.38
2022-12-08T22:28:12.624Z,95725.13
2022-12-08T22:30:39.766Z,95725.47
2022-12-08T22:33:06.841Z,95717.66
2022-12-08T22:35:33.471Z,95723.41
2022-12-08T22:38:00.104Z,95727.38
2022-12-08T22:40:27.001Z,95727.81
2022-12-08T22:42:53.783Z,95730.19
2022-12-08T22:45:20.708Z,95728.09
2022-12-08T22:47:50.235Z,95725.50
2022-12-08T22:50:17.276Z,95729.22
2022-12-08T22:52:44.091Z,95719.53
2022-12-08T22:55:10.923Z,95713.28
2022-12-08T22:57:37.810Z,95713.94
2022-12-08T23:00:05.956Z,95706.03
2022-12-08T23:02:33.096Z,95704.63
2022-12-08T23:04:59.833Z,95697.72
2022-12-08T23:07:26.805Z,95690.03
2022-12-08T23:09:53.627Z,95690.88
2022-12-08T23:12:20.479Z,95694.56
2022-12-08T23:14:47.105Z,95694.44
2022-12-08T23:17:13.854Z,95695.81
2022-12-08T23:19:40.716Z,95689.22
2022-12-08T23:22:07.503Z,95692.13
2022-12-08T23:24:34.125Z,95686.03
2022-12-08T23:27:00.792Z,95683.69
2022-12-08T23:29:27.473Z,95686.31
2022-12-08T23:31:54.167Z,95679.53
2022-12-08T23:34:20.945Z,95683.38
2022-12-08T23:36:47.647Z,95677.38
2022-12-08T23:39:14.315Z,95680.13
2022-12-08T23:41:40.964Z,95674.34
2022-12-08T23:44:07.638Z,95671.31
2022-12-08T23:46:34.549Z,95664.94
2022-12-08T23:49:01.456Z,95672.03
2022-12-08T23:51:28.102Z,95658.88
2022-12-08T23:53:54.768Z,95661.03
2022-12-08T23:56:24.376Z,95665.22
2022-12-08T23:58:53.926Z,95662.81
